Observations for Trim Patrick St
| Time | AQI | Temp °C | Hum % | Pres Pa | CO μg/m³ | H₂S μg/m³ | NO μg/m³ | NO₂ μg/m³ | O₃ μg/m³ | SO₂ μg/m³ | PM1 μg/m³ | PM2.5 μg/m³ | PM10 μg/m³ |
|---|---|---|---|---|---|---|---|---|---|---|---|---|---|
| Friday 31 July 2026 | |||||||||||||
| 01:29 | 2 | 12.8 | 68 | 37,070 | 0.22 | 7.68 | 3.29 | 30.64 | 39.36 | 0 | 2 | 7.45 | 8.2 |
| 01:28 | 2 | 12.8 | 67 | 36,606 | 0.22 | 6.1 | 3.25 | 18.77 | 37.89 | 0 | 2.86 | 6.8 | 7.48 |
| 01:27 | 2 | 12.8 | 69 | 35,988 | 0.21 | 6.8 | 3.55 | 29.98 | 49.88 | 0 | 2.86 | 7.37 | 8.11 |
| 01:26 | 2 | 12.8 | 69 | 35,164 | 0.21 | 4.68 | 3.51 | 16.28 | 42.93 | 0 | 3.71 | 7.4 | 8.14 |
| 01:25 | 2 | 12.9 | 67 | 34,065 | 0.22 | 6.93 | 3.34 | 25.69 | 44.02 | 0 | 3.71 | 7.54 | 8.29 |
| 01:24 | 2 | 12.9 | 70 | 32,600 | 0.21 | 6.59 | 3.71 | 24.17 | 48.29 | 0 | 2.86 | 7.32 | 8.05 |
| 01:23 | 2 | 12.9 | 69 | 30,648 | 0.21 | 6.13 | 3.67 | 22.6 | 48.02 | 0 | 2.86 | 6.67 | 7.33 |
| 01:22 | 2 | 12.9 | 68 | 28,044 | 0.21 | 6 | 3.49 | 20.49 | 49.27 | 0 | 2.86 | 6.03 | 6.63 |
| 01:21 | 2 | 12.9 | 69 | 24,571 | 0.21 | 6.52 | 3.62 | 24.43 | 49.46 | 0 | 2.86 | 7.37 | 8.11 |
| 01:20 | 2 | 13 | 69 | 19,941 | 0.2 | 5.87 | 3.59 | 16.94 | 36.31 | 0 | 2.86 | 6.69 | 7.36 |
| 01:19 | 2 | 13 | 68 | 13,766 | 0.2 | 6.16 | 3.51 | 23.22 | 49.13 | 0 | 2.86 | 6.74 | 7.41 |
| 01:17 | 2 | 13 | 68 | 113,527 | 0.2 | 4.76 | 3.54 | 19.6 | 44.9 | 0 | 2 | 6.76 | 7.43 |
| 01:16 | 2 | 13.1 | 68 | 108,313 | 0.2 | 6.08 | 3.48 | 19.6 | 49.15 | 0 | 2.86 | 7.46 | 8.21 |
| 01:15 | 2 | 13.1 | 69 | 105,663 | 0.2 | 5.23 | 3.55 | 20.27 | 48.01 | 0 | 3.71 | 7.39 | 8.13 |
| 01:14 | 2 | 13.1 | 69 | 101,211 | 0.21 | 4.24 | 3.53 | 18.28 | 49.48 | 0 | 3.71 | 7.4 | 8.14 |
| 01:13 | 2 | 13.1 | 66 | 97,513 | 0.19 | 5.07 | 3.36 | 18.5 | 44.22 | 0 | 2.86 | 6.84 | 7.52 |
| 01:12 | 2 | 13.1 | 69 | 93,708 | 0.2 | 4.19 | 3.6 | 15.53 | 45.86 | 0 | 2 | 6.67 | 7.34 |
| 01:11 | 2 | 13.2 | 69 | 90,908 | 0.2 | 4.68 | 3.59 | 18.57 | 47.42 | 0 | 2.86 | 7.41 | 8.15 |
| 01:10 | 2 | 13.2 | 68 | 88,280 | 0.21 | 4.94 | 3.53 | 22.79 | 44.44 | 0 | 2.86 | 7.43 | 8.17 |
| 01:09 | 2 | 13.2 | 68 | 85,874 | 0.19 | 4.27 | 3.54 | 22.82 | 43.29 | 0 | 2.86 | 7.42 | 8.16 |